Airfield :
LOGIN :

Register | Disclaimer

   EN    FR    IT 

 










Legend :    VFR   Marginal VFR   IFR   Intensive IFR   Very Intensive IFR
Visi :
Ceiling :
>= 8 km
>= 3000ft
5 to 8 km
1000 to 3000 ft
1500m to 5 km
500 to 1000 ft
800 to 1500m
200 to 500 ft
< 800m
< 200 ft
Symbols :   Thunderstorms  Fog  Heavy snow  Heavy precipitations  Wind > 20 kt
SIGMETs :     Misc.  Thunderstorms  Icing  Turbulence  Mountain Waves  Volcanic Ashes







- Airport Elevation : 348 ft
- IATA code : LDV
- Download approach charts


LFRJ - Landivisiau

CURRENT METAR :
  • 210100Z AUTO 22014KT 9999 BKN017 BKN037 BKN110 12/12 Q1006

EXPIRED METARs :
  • 210030Z AUTO 22016KT 9999 FEW006 BKN086 12/12 Q1006
  • 210000Z AUTO 23016KT 9999 -RA FEW010/// SCT016/// BKN025/// ///TCU 12/11 Q1006
  • 202330Z AUTO 21013KT 180V240 9999 BKN020/// BKN026/// BKN072/// ///CB 13/12 Q1005
  • 202300Z AUTO 19015KT 9999 FEW029 BKN110 BKN130 12/12 Q1005
  • 202230Z AUTO 20011KT 9999 FEW009 OVC100 12/12 Q1005

Expired Forecast.
No reported NOTAMs for that airfield.
2 SIGMETs reported for the Brest FIR (LFRR) :
 
Severe turbulence
LFRR SIGMET 6 VALID 202300/210300 LFPW
LFRR BREST FIR/UIR SEV TURB FCST WI N4915 W00615 - N5000 W00200 - N5000 W00015 - N4845 W00015 - N4700 W00415 SFC/FL060 MOV E 25KT NC=
Severe turbulence
LFRR SIGMET 5 VALID 202300/210300 LFPW
LFRR BREST FIR/UIR SEV TURB FCST NW OF LINE N5000 W00100 - N4545 W00800 FL180/280 MOV E 25KT NC=



MET'MAP, your aeronautical weather chart ! - Copyright ORBIFLY December 2007 - Disclaimer

ORBIFLY MET'MAP TEAM :

Programming & Development : Alexandra Zaïnal
Concept & Development : Baudouin d'Aumeries
Co-Development & Prog : Marc-Olivier Méhu
Technical & hardware support : Manuel Goepfert

Contact : metmap@orbifly.com




SOURCES & CREDITS :

   NOAA